Time;durP1;ratioP1;P1;durP2;ratioP2;P2;SDS_P1;SDS_P2;PMS_P1;PMS_P2;Temp;Humidity;BMP_temperature;BMP_pressure;BME280_temperature;BME280_humidity;BME280_pressure;Samples;Min_cycle;Max_cycle;Signal;HPM_P1;HPM_P2
2023/04/28 00:00:25;;;;;;;1.67;1.55;;;;;;;12.71;47.33;100729.97;6365835;23;20009;-87
2023/04/28 00:02:56;;;;;;;7.40;1.42;;;;;;;12.76;46.87;100714.91;6337274;23;20381;-87
2023/04/28 00:05:26;;;;;;;1.08;0.80;;;;;;;12.71;47.32;100717.69;6359583;23;20017;-87
2023/04/28 00:07:57;;;;;;;1.45;1.38;;;;;;;12.75;47.28;100715.81;6314270;23;20001;-88
2023/04/28 00:10:28;;;;;;;0.60;0.60;;;;;;;12.81;47.33;100712.09;6359770;23;20519;-86
2023/04/28 00:12:58;;;;;;;0.45;0.45;;;;;;;12.84;47.72;100699.69;6335998;23;20013;-87
2023/04/28 00:15:29;;;;;;;0.65;0.65;;;;;;;12.76;48.64;100693.84;6334919;23;20049;-86
2023/04/28 00:17:59;;;;;;;0.93;0.93;;;;;;;12.52;51.43;100687.69;6315122;23;20064;-87
2023/04/28 00:20:30;;;;;;;1.55;1.45;;;;;;;12.52;51.64;100682.41;6334206;23;20014;-86
2023/04/28 00:23:00;;;;;;;0.50;0.50;;;;;;;12.62;49.71;100683.81;6374526;23;20039;-87
2023/04/28 00:25:30;;;;;;;0.85;0.85;;;;;;;12.67;49.24;100681.84;6335491;23;20068;-87
2023/04/28 00:28:01;;;;;;;0.82;0.82;;;;;;;12.80;48.86;100669.09;6379795;23;20009;-87
2023/04/28 00:30:32;;;;;;;1.92;0.98;;;;;;;12.87;48.88;100675.00;6342443;23;20380;-87
2023/04/28 00:33:02;;;;;;;0.82;0.82;;;;;;;12.59;52.49;100676.88;6372286;23;20501;-87
2023/04/28 00:35:32;;;;;;;8.50;2.22;;;;;;;12.69;50.93;100674.75;6332763;23;20028;-86
2023/04/28 00:38:03;;;;;;;0.52;0.52;;;;;;;12.75;50.79;100671.91;6337017;23;20041;-87
2023/04/28 00:40:35;;;;;;;0.30;0.30;;;;;;;12.33;54.37;100674.31;6362961;23;20045;-85
2023/04/28 00:43:06;;;;;;;8.23;1.88;;;;;;;12.26;55.37;100664.00;6336819;23;20160;-86
2023/04/28 00:45:36;;;;;;;1.90;1.75;;;;;;;12.22;55.75;100662.38;6336396;23;20050;-86
2023/04/28 00:48:06;;;;;;;0.80;0.77;;;;;;;12.51;52.49;100657.88;6345088;23;20118;-87
2023/04/28 00:50:37;;;;;;;1.05;1.05;;;;;;;12.65;51.98;100653.88;6359499;23;19997;-85
2023/04/28 00:53:09;;;;;;;2.00;1.75;;;;;;;12.77;50.58;100653.41;6364814;23;20025;-86
2023/04/28 00:55:39;;;;;;;3.63;1.45;;;;;;;12.84;50.32;100661.94;6362745;23;20032;-86
2023/04/28 00:58:10;;;;;;;0.82;0.82;;;;;;;12.81;51.09;100656.81;6360046;23;20006;-87
2023/04/28 01:00:40;;;;;;;1.65;1.10;;;;;;;12.84;50.10;100660.19;6334911;23;20094;-87
2023/04/28 01:03:11;;;;;;;0.70;0.70;;;;;;;12.87;50.66;100654.78;6334940;23;20014;-87
2023/04/28 01:05:41;;;;;;;0.60;0.60;;;;;;;12.88;50.57;100653.88;6334026;23;20009;-87
2023/04/28 01:08:12;;;;;;;0.85;0.85;;;;;;;12.91;50.60;100648.50;6335387;23;20020;-85
2023/04/28 01:10:43;;;;;;;0.90;0.90;;;;;;;12.96;50.49;100650.09;6364080;23;20495;-87
2023/04/28 01:13:14;;;;;;;3.42;0.63;;;;;;;12.99;50.96;100645.56;6335258;23;20105;-85
2023/04/28 01:15:44;;;;;;;0.40;0.40;;;;;;;12.97;51.75;100644.78;6334725;23;20041;-86
2023/04/28 01:18:15;;;;;;;2.03;1.85;;;;;;;12.80;53.38;100642.78;6334671;23;20013;-86
2023/04/28 01:20:45;;;;;;;1.38;0.80;;;;;;;12.78;52.99;100646.38;6363001;23;20021;-87
2023/04/28 01:23:17;;;;;;;1.38;1.23;;;;;;;12.91;51.92;100643.22;6370671;23;20013;-87
2023/04/28 01:25:47;;;;;;;9.63;1.45;;;;;;;12.91;52.55;100650.25;6364123;23;20020;-85
2023/04/28 01:28:17;;;;;;;1.40;1.15;;;;;;;12.87;52.32;100657.41;6338021;23;20514;-86
2023/04/28 01:30:48;;;;;;;0.80;0.80;;;;;;;12.90;53.37;100657.31;6336090;23;20088;-86
2023/04/28 01:33:18;;;;;;;14.48;1.48;;;;;;;13.03;52.32;100651.56;6365386;23;20005;-86
2023/04/28 01:35:49;;;;;;;1.02;1.02;;;;;;;13.03;51.79;100655.06;6360851;23;20017;-87
2023/04/28 01:38:19;;;;;;;0.85;0.85;;;;;;;13.03;52.72;100651.56;6335342;23;20560;-88
2023/04/28 01:40:50;;;;;;;0.40;0.40;;;;;;;12.95;54.54;100643.97;6362076;23;20286;-87
2023/04/28 01:43:20;;;;;;;1.70;1.60;;;;;;;12.64;57.03;100634.59;6335196;23;20016;-87
2023/04/28 01:45:50;;;;;;;1.13;1.13;;;;;;;12.46;56.68;100632.63;6362884;23;20090;-87
2023/04/28 01:48:21;;;;;;;3.88;0.82;;;;;;;12.64;55.89;100631.97;6335854;23;20044;-87
2023/04/28 01:50:51;;;;;;;0.40;0.40;;;;;;;12.71;56.44;100633.47;6372433;23;19994;-86
2023/04/28 01:56:30;;;;;;;0.90;0.90;;;;;;;12.82;54.18;100638.31;6360645;23;20017;-87
2023/04/28 01:59:00;;;;;;;2.45;1.20;;;;;;;12.75;55.55;100634.19;6369831;23;20080;-87
2023/04/28 02:01:30;;;;;;;0.75;0.75;;;;;;;12.64;58.92;100628.47;6357656;23;20044;-88
2023/04/28 02:04:01;;;;;;;0.68;0.68;;;;;;;12.77;54.79;100629.72;6369092;23;20010;-87
2023/04/28 02:06:31;;;;;;;0.63;0.63;;;;;;;12.86;54.15;100632.00;6363477;23;20048;-86
2023/04/28 02:09:02;;;;;;;0.47;0.47;;;;;;;12.81;55.59;100623.44;6363897;23;20033;-87
2023/04/28 02:11:32;;;;;;;0.63;0.63;;;;;;;12.86;54.15;100615.34;6358902;23;20020;-88
2023/04/28 02:14:03;;;;;;;0.73;0.73;;;;;;;12.87;54.11;100617.91;6360941;23;20005;-87
2023/04/28 02:16:33;;;;;;;0.30;0.30;;;;;;;12.93;54.45;100623.88;6360204;23;20020;-88
2023/04/28 02:19:03;;;;;;;0.68;0.68;;;;;;;12.91;54.26;100614.25;6337621;23;20017;-88
2023/04/28 02:21:34;;;;;;;0.65;0.65;;;;;;;12.52;59.06;100606.94;6335373;23;20519;-88
2023/04/28 02:24:05;;;;;;;0.68;0.68;;;;;;;12.34;61.07;100605.00;6363264;23;20017;-87
2023/04/28 02:26:35;;;;;;;0.95;0.93;;;;;;;12.67;56.41;100599.41;6361954;23;20017;-88
2023/04/28 02:29:06;;;;;;;0.68;0.68;;;;;;;12.67;60.01;100604.66;6373757;23;20080;-88
2023/04/28 02:31:36;;;;;;;0.40;0.40;;;;;;;12.62;57.29;100611.88;6336263;23;20017;-88
2023/04/28 02:34:07;;;;;;;0.82;0.82;;;;;;;12.78;55.96;100612.16;6382282;23;20029;-88
2023/04/28 02:36:38;;;;;;;1.98;1.17;;;;;;;12.81;55.59;100618.16;6342910;23;20271;-88
2023/04/28 02:39:08;;;;;;;0.65;0.65;;;;;;;12.84;56.06;100612.78;6364820;23;20017;-87
2023/04/28 02:41:39;;;;;;;1.25;0.88;;;;;;;12.79;55.80;100622.63;6361692;23;20017;-86
2023/04/28 02:44:10;;;;;;;0.60;0.60;;;;;;;12.80;56.00;100621.72;6354563;23;20062;-86
2023/04/28 02:46:40;;;;;;;0.75;0.75;;;;;;;12.88;56.35;100614.38;6339672;23;20022;-86
2023/04/28 02:49:11;;;;;;;1.23;1.20;;;;;;;12.78;57.58;100610.38;6364318;23;20013;-86
2023/04/28 02:51:41;;;;;;;0.88;0.88;;;;;;;12.78;56.74;100597.19;6336846;23;20021;-86
2023/04/28 02:54:12;;;;;;;0.75;0.75;;;;;;;12.82;56.19;100598.81;6337303;23;20015;-86
2023/04/28 02:56:42;;;;;;;0.68;0.68;;;;;;;12.80;57.62;100595.38;6337735;23;20087;-86
2023/04/28 02:59:13;;;;;;;0.82;0.82;;;;;;;12.59;60.95;100600.56;6338168;23;20013;-86
2023/04/28 03:01:43;;;;;;;0.47;0.47;;;;;;;12.78;57.49;100607.72;6334077;23;20020;-86
2023/04/28 03:04:14;;;;;;;0.75;0.65;;;;;;;12.86;58.06;100610.94;6336322;23;20014;-86
2023/04/28 03:06:44;;;;;;;0.38;0.38;;;;;;;12.82;56.85;100598.81;6335047;23;20021;-87
2023/04/28 03:09:15;;;;;;;0.40;0.40;;;;;;;12.79;57.40;100593.66;6336900;23;20080;-86
2023/04/28 03:11:45;;;;;;;1.30;1.20;;;;;;;12.83;56.78;100587.38;6335283;23;20021;-86
2023/04/28 03:14:16;;;;;;;0.65;0.65;;;;;;;12.85;56.71;100590.78;6337211;23;20016;-87
2023/04/28 03:16:46;;;;;;;0.40;0.40;;;;;;;12.87;56.50;100598.66;6345229;23;20017;-86
2023/04/28 03:19:17;;;;;;;0.25;0.25;;;;;;;12.75;59.21;100592.91;6345131;23;20008;-85
2023/04/28 03:21:47;;;;;;;0.73;0.73;;;;;;;12.57;62.96;100581.31;6335536;23;20067;-86
2023/04/28 03:24:18;;;;;;;2.40;1.17;;;;;;;12.53;60.14;100570.97;6336721;23;20017;-86
2023/04/28 03:26:48;;;;;;;13.25;1.75;;;;;;;12.53;61.39;100556.03;6335708;23;20017;-86
2023/04/28 03:29:19;;;;;;;0.60;0.60;;;;;;;12.69;60.42;100560.69;6372422;23;20006;-86
2023/04/28 03:31:49;;;;;;;0.50;0.50;;;;;;;12.66;59.56;100551.16;6333917;23;20633;-85
2023/04/28 03:34:20;;;;;;;0.50;0.50;;;;;;;12.71;59.21;100546.59;6338032;23;20009;-86
2023/04/28 03:36:50;;;;;;;1.30;0.85;;;;;;;12.72;59.83;100536.91;6336179;23;20013;-86
2023/04/28 03:39:20;;;;;;;0.60;0.60;;;;;;;12.59;61.37;100524.22;6337463;23;20041;-86
2023/04/28 03:41:51;;;;;;;0.70;0.70;;;;;;;12.57;61.39;100514.66;6337133;23;20041;-87
2023/04/28 03:44:22;;;;;;;0.88;0.88;;;;;;;12.62;61.40;100506.56;6371511;23;20092;-86
2023/04/28 03:46:52;;;;;;;0.60;0.60;;;;;;;12.58;61.04;100504.09;6337178;23;20025;-87
2023/04/28 03:49:23;;;;;;;4.43;1.25;;;;;;;12.50;62.10;100507.91;6335301;23;20018;-87
2023/04/28 03:51:53;;;;;;;0.90;0.90;;;;;;;12.60;60.69;100506.66;6335636;23;20023;-86
2023/04/28 03:54:24;;;;;;;0.40;0.40;;;;;;;12.64;59.57;100510.03;6358985;23;20017;-86
2023/04/28 03:56:54;;;;;;;1.50;1.25;;;;;;;12.57;60.64;100501.50;6335295;23;20017;-86
2023/04/28 03:59:25;;;;;;;0.43;0.43;;;;;;;12.68;60.61;100495.84;6359373;23;20096;-86
2023/04/28 04:01:56;;;;;;;0.43;0.43;;;;;;;12.50;62.65;100493.00;6333816;23;20093;-85
2023/04/28 04:04:26;;;;;;;0.45;0.45;;;;;;;12.33;64.99;100488.38;6334895;23;20471;-85
2023/04/28 04:06:57;;;;;;;10.10;0.85;;;;;;;12.40;63.63;100489.84;6334882;23;20041;-86
2023/04/28 04:09:27;;;;;;;0.60;0.60;;;;;;;12.14;66.07;100490.84;6361002;23;20010;-87
2023/04/28 04:11:59;;;;;;;0.60;0.60;;;;;;;12.33;63.98;100495.41;6362468;23;20100;-86
2023/04/28 04:14:30;;;;;;;5.97;2.65;;;;;;;12.46;60.86;100491.38;6336174;23;20072;-87
2023/04/28 04:17:00;;;;;;;0.85;0.75;;;;;;;12.47;61.55;100490.47;6363206;23;20037;-87
2023/04/28 04:19:31;;;;;;;0.73;0.73;;;;;;;12.55;60.43;100501.56;6336986;23;20540;-87
2023/04/28 04:22:01;;;;;;;1.67;1.23;;;;;;;12.57;59.67;100509.38;6364160;23;20072;-88
2023/04/28 04:24:32;;;;;;;0.45;0.45;;;;;;;12.54;61.29;100507.75;6363708;23;20005;-88
2023/04/28 04:27:02;;;;;;;0.70;0.70;;;;;;;12.55;60.40;100505.97;6350109;23;20064;-86
2023/04/28 04:29:33;;;;;;;0.30;0.30;;;;;;;12.54;60.85;100506.91;6367332;23;20009;-86
2023/04/28 04:32:03;;;;;;;0.75;0.75;;;;;;;12.50;62.10;100508.78;6339269;23;20014;-86
2023/04/28 04:34:33;;;;;;;1.42;1.33;;;;;;;12.26;65.64;100511.44;6369500;23;20005;-85
2023/04/28 04:37:04;;;;;;;1.65;0.80;;;;;;;12.55;62.18;100508.63;6335149;23;20036;-82
2023/04/28 04:39:35;;;;;;;1.20;1.17;;;;;;;12.54;61.78;100499.84;6365990;23;20450;-82
2023/04/28 04:42:05;;;;;;;0.80;0.80;;;;;;;12.51;61.44;100509.63;6333126;23;20018;-83
2023/04/28 04:44:36;;;;;;;0.50;0.50;;;;;;;12.35;65.18;100501.50;6332633;23;20013;-83
2023/04/28 04:47:06;;;;;;;1.20;1.10;;;;;;;12.16;66.65;100503.94;6334190;23;20466;-82
2023/04/28 04:49:37;;;;;;;1.17;1.08;;;;;;;12.45;62.07;100505.47;6332184;23;20024;-83
2023/04/28 04:52:08;;;;;;;0.80;0.80;;;;;;;12.52;61.21;100509.56;6333179;23;20014;-83
2023/04/28 04:54:38;;;;;;;0.65;0.65;;;;;;;12.55;61.14;100496.28;6318937;23;20017;-83
2023/04/28 04:57:09;;;;;;;2.03;1.90;;;;;;;12.57;60.87;100505.00;6337457;23;20072;-82
2023/04/28 04:59:39;;;;;;;0.90;0.82;;;;;;;12.54;62.06;100504.25;6365401;23;20059;-83
2023/04/28 05:02:10;;;;;;;1.25;1.15;;;;;;;12.56;61.02;100498.00;6359388;23;20017;-83
2023/04/28 05:04:41;;;;;;;0.70;0.70;;;;;;;12.56;61.18;100492.75;6364503;23;21464;-83
2023/04/28 05:07:11;;;;;;;0.70;0.70;;;;;;;12.52;61.66;100501.66;6333299;23;20013;-83
2023/04/28 05:09:42;;;;;;;1.50;0.80;;;;;;;12.40;64.72;100499.53;6332412;23;20017;-83
2023/04/28 05:12:12;;;;;;;1.27;1.17;;;;;;;12.46;62.45;100499.28;6344739;23;20013;-82
2023/04/28 05:14:42;;;;;;;2.38;1.10;;;;;;;12.43;62.72;100496.78;6381601;23;20066;-83
2023/04/28 05:17:13;;;;;;;1.08;1.00;;;;;;;12.34;63.68;100497.97;6334467;23;20014;-83
2023/04/28 05:19:43;;;;;;;1.38;1.27;;;;;;;12.47;61.16;100501.00;6333180;23;20014;-83
2023/04/28 05:22:14;;;;;;;0.30;0.30;;;;;;;12.49;62.01;100501.81;6333253;23;20033;-83
2023/04/28 05:24:44;;;;;;;0.90;0.88;;;;;;;12.49;61.93;100495.66;6365867;23;20020;-83
2023/04/28 05:27:15;;;;;;;1.10;0.88;;;;;;;12.47;61.57;100497.53;6333793;23;20104;-84
2023/04/28 05:29:45;;;;;;;0.80;0.80;;;;;;;12.39;62.82;100496.06;6332241;23;20561;-84
2023/04/28 05:32:16;;;;;;;0.68;0.68;;;;;;;12.48;61.21;100494.81;6356050;23;20013;-84
2023/04/28 05:34:46;;;;;;;1.17;1.02;;;;;;;12.43;62.00;100494.16;6332749;23;20010;-84
2023/04/28 05:37:17;;;;;;;0.45;0.40;;;;;;;12.54;60.79;100494.59;6334065;23;20025;-83
2023/04/28 05:39:47;;;;;;;0.30;0.30;;;;;;;12.54;60.56;100489.31;6332516;23;20013;-83
2023/04/28 05:42:17;;;;;;;0.85;0.85;;;;;;;12.50;62.03;100490.38;6358362;23;20025;-83
2023/04/28 05:44:48;;;;;;;1.27;0.85;;;;;;;12.52;61.22;100483.25;6333340;23;20020;-83
2023/04/28 05:47:18;;;;;;;1.00;0.90;;;;;;;12.51;62.07;100473.66;6333925;23;20048;-82
2023/04/28 05:49:49;;;;;;;0.38;0.38;;;;;;;12.53;61.53;100477.06;6368345;23;20085;-83
2023/04/28 05:52:19;;;;;;;0.35;0.35;;;;;;;12.48;64.45;100470.31;6358929;23;20021;-84
2023/04/28 05:54:49;;;;;;;0.60;0.60;;;;;;;12.49;63.28;100464.97;6334804;23;20494;-83
2023/04/28 05:57:20;;;;;;;0.60;0.60;;;;;;;12.51;63.26;100463.13;6384827;23;20021;-85
2023/04/28 05:59:51;;;;;;;1.73;1.63;;;;;;;12.48;65.44;100467.66;6333613;23;20021;-84
2023/04/28 06:02:21;;;;;;;0.30;0.30;;;;;;;12.55;63.35;100459.44;6334383;23;20486;-83
2023/04/28 06:04:52;;;;;;;0.47;0.47;;;;;;;12.58;64.48;100466.38;6370264;23;20410;-83
2023/04/28 06:07:22;;;;;;;0.60;0.60;;;;;;;12.59;62.50;100468.09;6345201;23;20012;-84
2023/04/28 06:09:52;;;;;;;0.40;0.40;;;;;;;12.51;64.19;100478.06;6335772;23;20104;-84
2023/04/28 06:12:23;;;;;;;0.50;0.50;;;;;;;12.55;63.37;100469.13;6369039;23;20009;-84
2023/04/28 06:14:54;;;;;;;6.13;0.93;;;;;;;12.50;64.42;100474.59;6334959;23;20033;-83
2023/04/28 06:17:24;;;;;;;1.88;0.68;;;;;;;12.54;63.09;100478.78;6361267;23;19998;-85
2023/04/28 06:19:57;;;;;;;0.50;0.50;;;;;;;12.63;61.99;100476.72;6375072;23;20021;-84
2023/04/28 06:22:28;;;;;;;0.70;0.70;;;;;;;12.63;62.37;100472.31;6372152;23;20006;-85
2023/04/28 06:24:58;;;;;;;0.30;0.30;;;;;;;12.63;63.94;100476.72;6369214;23;20028;-83
2023/04/28 06:27:31;;;;;;;0.98;0.98;;;;;;;12.87;63.63;100480.16;6339549;23;20005;-85
2023/04/28 06:30:02;;;;;;;0.32;0.32;;;;;;;12.67;64.94;100483.59;6361333;23;20009;-83
2023/04/28 06:32:32;;;;;;;1.70;1.00;;;;;;;12.49;66.84;100470.22;6334275;23;20317;-80
2023/04/28 06:35:03;;;;;;;1.23;1.13;;;;;;;12.62;66.45;100469.72;6367473;23;20013;-83
2023/04/28 06:37:34;;;;;;;1.90;1.75;;;;;;;12.73;65.58;100463.13;6361216;23;20012;-83
2023/04/28 06:40:05;;;;;;;0.22;0.22;;;;;;;12.74;64.93;100464.84;6366322;23;20013;-83
2023/04/28 06:42:35;;;;;;;1.60;1.42;;;;;;;12.70;65.21;100479.06;6359379;23;20013;-84
2023/04/28 06:45:06;;;;;;;0.52;0.50;;;;;;;12.77;65.86;100477.00;6366135;23;20013;-84
2023/04/28 06:47:39;;;;;;;0.80;0.80;;;;;;;12.83;65.53;100468.00;6360388;23;20092;-83
2023/04/28 06:50:09;;;;;;;0.70;0.70;;;;;;;12.91;63.70;100464.16;6333922;23;20037;-83
2023/04/28 06:52:40;;;;;;;0.52;0.52;;;;;;;12.87;68.04;100470.47;6369480;23;20017;-83
2023/04/28 06:55:14;;;;;;;0.70;0.55;;;;;;;12.97;64.24;100480.63;6334416;23;20064;-82
2023/04/28 06:57:45;;;;;;;4.38;2.05;;;;;;;12.99;66.70;100481.44;6361947;23;20012;-83
2023/04/28 07:00:16;;;;;;;0.75;0.75;;;;;;;13.07;65.39;100479.34;6363996;23;20013;-84
2023/04/28 07:02:46;;;;;;;1.25;1.15;;;;;;;13.06;64.93;100474.97;6331420;23;20719;-84
2023/04/28 07:05:17;;;;;;;0.65;0.65;;;;;;;13.12;64.83;100479.16;6365122;23;20032;-84
2023/04/28 07:07:47;;;;;;;0.88;0.88;;;;;;;13.16;65.37;100480.72;6370231;23;20112;-84
2023/04/28 07:10:18;;;;;;;0.65;0.65;;;;;;;13.17;64.83;100488.56;6363924;23;20460;-84
2023/04/28 07:12:50;;;;;;;0.50;0.50;;;;;;;13.15;67.34;100494.81;6334708;23;20225;-85
2023/04/28 07:15:22;;;;;;;2.65;1.77;;;;;;;13.27;64.22;100488.16;6332954;23;20017;-84
2023/04/28 07:17:53;;;;;;;0.93;0.93;;;;;;;13.28;64.93;100485.47;6336153;23;20024;-84
2023/04/28 07:20:23;;;;;;;2.45;1.85;;;;;;;13.34;63.79;100487.00;6356780;23;20537;-84
2023/04/28 07:22:54;;;;;;;0.60;0.60;;;;;;;13.23;65.32;100480.41;6334448;23;20120;-84
2023/04/28 07:25:24;;;;;;;0.70;0.70;;;;;;;13.32;64.86;100483.56;6345389;23;20013;-83
2023/04/28 07:27:55;;;;;;;0.82;0.82;;;;;;;13.35;64.21;100472.88;6364048;23;20135;-82
2023/04/28 07:30:25;;;;;;;2.40;2.20;;;;;;;13.38;64.45;100465.78;6361312;23;20049;-83
2023/04/28 07:32:55;;;;;;;1.23;1.15;;;;;;;13.43;64.91;100472.59;6388187;23;20029;-83
2023/04/28 07:35:26;;;;;;;0.70;0.65;;;;;;;13.42;65.06;100474.41;6362195;23;20439;-83
2023/04/28 07:37:56;;;;;;;0.70;0.70;;;;;;;13.51;65.50;100488.94;6367334;23;20013;-84
2023/04/28 07:40:27;;;;;;;0.70;0.70;;;;;;;13.45;66.31;100486.56;6345763;23;20604;-84
2023/04/28 07:42:58;;;;;;;2.92;1.38;;;;;;;13.49;66.13;100489.03;6365987;23;20009;-84
2023/04/28 07:45:28;;;;;;;1.00;1.00;;;;;;;13.47;67.23;100479.47;6371651;23;20025;-82
2023/04/28 07:47:59;;;;;;;1.02;1.02;;;;;;;13.56;66.44;100465.03;6377817;23;20005;-83
2023/04/28 07:50:29;;;;;;;1.17;0.85;;;;;;;13.57;65.56;100461.47;6368927;23;20017;-82
2023/04/28 07:53:00;;;;;;;0.30;0.30;;;;;;;13.59;66.40;100457.00;6341403;23;20514;-83
2023/04/28 07:55:30;;;;;;;3.08;2.13;;;;;;;13.65;64.91;100456.72;6369690;23;20024;-83
2023/04/28 07:58:01;;;;;;;0.82;0.82;;;;;;;13.66;65.89;100461.06;6379342;23;20033;-84
2023/04/28 08:00:31;;;;;;;1.98;1.08;;;;;;;13.66;67.96;100459.28;6335786;23;20017;-83
2023/04/28 08:03:02;;;;;;;0.47;0.47;;;;;;;13.76;65.03;100466.78;6337503;23;20008;-84
2023/04/28 08:05:32;;;;;;;0.68;0.68;;;;;;;13.71;68.37;100456.44;6365571;23;20013;-84
2023/04/28 08:08:03;;;;;;;0.95;0.88;;;;;;;13.82;65.90;100463.84;6337536;23;20407;-82
2023/04/28 08:10:33;;;;;;;0.45;0.45;;;;;;;13.88;66.88;100457.47;6363860;23;20013;-83
2023/04/28 08:13:03;;;;;;;1.48;1.38;;;;;;;13.82;70.59;100459.47;6360645;23;20365;-83
2023/04/28 08:15:34;;;;;;;0.60;0.60;;;;;;;13.87;68.24;100456.63;6364904;23;20006;-83
2023/04/28 08:18:06;;;;;;;0.40;0.40;;;;;;;13.95;67.75;100458.91;6366815;23;20012;-82
2023/04/28 08:20:36;;;;;;;1.30;1.13;;;;;;;14.05;67.76;100462.84;6373733;23;20013;-83
2023/04/28 08:23:08;;;;;;;0.80;0.80;;;;;;;14.08;69.34;100465.34;6342731;23;20105;-83
2023/04/28 08:25:38;;;;;;;1.10;0.85;;;;;;;14.12;69.32;100460.78;6365121;23;20017;-84
2023/04/28 08:28:09;;;;;;;0.40;0.40;;;;;;;14.19;67.39;100469.25;6360461;23;20211;-82
2023/04/28 08:30:39;;;;;;;2.30;1.15;;;;;;;14.25;66.64;100471.63;6331826;23;20020;-84
2023/04/28 08:33:10;;;;;;;0.32;0.32;;;;;;;14.33;67.62;100469.47;6369352;23;20025;-82
2023/04/28 08:35:54;;;;;;;0.57;0.57;;;;;;;14.32;67.76;100470.41;5220303;28;20416;-84
2023/04/28 08:38:25;;;;;;;1.10;1.02;;;;;;;14.33;69.32;100470.31;5193629;28;20026;-84
2023/04/28 08:40:56;;;;;;;0.30;0.30;;;;;;;14.34;69.60;100471.16;5218789;28;20060;-85
2023/04/28 08:43:27;;;;;;;0.73;0.73;;;;;;;14.41;68.43;100472.63;5194733;28;20520;-85
2023/04/28 08:45:59;;;;;;;1.08;0.93;;;;;;;14.49;67.57;100482.78;5184630;28;20041;-85
2023/04/28 08:48:33;;;;;;;2.05;0.50;;;;;;;14.52;68.50;100479.16;5174262;28;20395;-85
2023/04/28 08:51:05;;;;;;;0.60;0.60;;;;;;;14.46;70.88;100486.44;5188854;28;20532;-84
2023/04/28 08:53:38;;;;;;;0.77;0.73;;;;;;;14.53;70.27;100480.88;5195398;28;20741;-84
2023/04/28 08:56:12;;;;;;;0.70;0.70;;;;;;;14.62;68.94;100483.06;5206556;28;20034;-84
2023/04/28 08:58:43;;;;;;;13.75;0.93;;;;;;;14.60;70.72;100477.00;5221959;28;20021;-84
2023/04/28 09:01:13;;;;;;;0.30;0.30;;;;;;;14.68;70.17;100484.59;5216694;28;20049;-84
2023/04/28 09:03:44;;;;;;;0.70;0.70;;;;;;;14.76;68.73;100472.72;5224672;28;20044;-85
2023/04/28 09:06:14;;;;;;;0.70;0.68;;;;;;;14.82;68.32;100479.50;5203037;28;20022;-84
2023/04/28 09:08:45;;;;;;;0.95;0.82;;;;;;;14.79;69.72;100480.50;5216656;28;20034;-85
2023/04/28 09:11:15;;;;;;;0.90;0.82;;;;;;;14.89;68.10;100477.41;5188629;28;20397;-84
2023/04/28 09:13:45;;;;;;;0.95;0.88;;;;;;;14.83;69.97;100483.00;5191496;28;20174;-84
2023/04/28 09:16:16;;;;;;;2.75;1.02;;;;;;;14.93;69.35;100478.97;5198389;28;20041;-84
2023/04/28 09:18:57;;;;;;;0.75;0.75;;;;;;;14.94;68.04;100470.09;5197614;28;20045;-83
2023/04/28 09:21:27;;;;;;;0.55;0.55;;;;;;;15.00;67.83;100464.50;5203911;28;20045;-84
2023/04/28 09:23:57;;;;;;;1.45;1.33;;;;;;;14.97;69.15;100466.47;5178551;28;20544;-84
2023/04/28 09:26:47;;;;;;;3.95;2.03;;;;;;;15.05;67.51;100478.38;5189417;28;20053;-84
2023/04/28 09:29:17;;;;;;;0.32;0.32;;;;;;;15.10;67.20;100471.06;5174729;28;20041;-84
2023/04/28 09:31:48;;;;;;;0.32;0.32;;;;;;;15.01;70.16;100475.97;5187888;28;20038;-84
2023/04/28 09:34:19;;;;;;;0.40;0.40;;;;;;;15.07;70.91;100468.59;5159742;28;20547;-82
2023/04/28 09:36:50;;;;;;;1.27;1.08;;;;;;;15.05;70.29;100465.16;5190848;28;20041;-83
2023/04/28 09:39:29;;;;;;;0.77;0.77;;;;;;;15.15;68.94;100470.84;5173553;28;20025;-83
2023/04/28 09:42:02;;;;;;;0.60;0.60;;;;;;;15.11;69.00;100467.50;5187994;28;20045;-83
2023/04/28 09:44:32;;;;;;;0.60;0.60;;;;;;;15.09;71.88;100468.50;5188125;28;20029;-83
2023/04/28 09:47:21;;;;;;;0.50;0.50;;;;;;;15.09;71.65;100468.50;5187960;28;20220;-83
2023/04/28 09:49:59;;;;;;;0.13;0.13;;;;;;;15.11;73.22;100467.50;5178321;28;20052;-83
2023/04/28 09:52:32;;;;;;;0.88;0.70;;;;;;;15.09;73.19;100469.34;5156682;28;20065;-82
2023/04/28 09:55:05;;;;;;;0.50;0.50;;;;;;;15.05;76.63;100474.84;5170552;28;20065;-84
2023/04/28 09:57:36;;;;;;;;;;;;;;;14.98;76.67;100466.41;5162210;28;20037;-83
2023/04/28 10:00:08;;;;;;;0.40;0.40;;;;;;;15.00;78.27;100456.59;5189854;28;19922;-82
2023/04/28 10:02:38;;;;;;;0.77;0.75;;;;;;;15.14;75.12;100461.19;5152591;28;20033;-83
2023/04/28 10:05:08;;;;;;;0.55;0.50;;;;;;;15.20;73.37;100457.38;5157131;28;20422;-83
2023/04/28 10:07:39;;;;;;;0.95;0.73;;;;;;;15.08;77.77;100457.06;5174942;28;20073;-83
2023/04/28 10:10:13;;;;;;;0.70;0.70;;;;;;;15.06;76.45;100461.59;5168347;28;20053;-83
2023/04/28 10:12:44;;;;;;;1.52;1.25;;;;;;;15.04;80.47;100460.81;5176190;28;20033;-84
2023/04/28 10:15:15;;;;;;;0.68;0.68;;;;;;;14.91;81.35;100465.84;5174736;28;20044;-82
2023/04/28 10:17:49;;;;;;;0.40;0.40;;;;;;;14.83;84.15;100461.88;5158419;28;20029;-84
2023/04/28 10:20:21;;;;;;;0.40;0.40;;;;;;;14.76;84.39;100464.78;5155921;28;20041;-83
2023/04/28 10:23:05;;;;;;;0.63;0.57;;;;;;;14.86;83.69;100462.59;5164000;28;20103;-84
2023/04/28 10:25:37;;;;;;;0.50;0.50;;;;;;;14.85;83.41;100460.00;5172212;28;20064;-84
2023/04/28 10:28:08;;;;;;;0.75;0.75;;;;;;;15.00;82.47;100453.94;5174139;28;20038;-85
2023/04/28 10:30:39;;;;;;;1.27;1.17;;;;;;;14.91;84.75;100462.34;5162079;28;20611;-83
2023/04/28 10:33:12;;;;;;;0.65;0.65;;;;;;;14.94;83.47;100451.63;5178266;28;20042;-84
2023/04/28 10:35:45;;;;;;;1.00;0.95;;;;;;;15.08;81.90;100456.22;5196051;28;20046;-85
2023/04/28 10:38:16;;;;;;;1.17;0.90;;;;;;;15.10;83.77;100457.00;5192432;28;20405;-84
2023/04/28 10:40:52;;;;;;;0.95;0.95;;;;;;;15.17;83.30;100457.53;5178012;28;20163;-83
2023/04/28 10:43:32;;;;;;;0.65;0.60;;;;;;;15.29;83.59;100453.44;5178573;28;20083;-82
2023/04/28 10:46:07;;;;;;;1.27;1.17;;;;;;;15.34;83.29;100456.69;5179384;28;20030;-83
2023/04/28 10:48:47;;;;;;;1.17;0.90;;;;;;;15.42;83.43;100455.34;5173153;28;20014;-83
2023/04/28 10:51:17;;;;;;;0.88;0.88;;;;;;;15.51;83.68;100445.22;5187602;28;20382;-83
2023/04/28 10:53:49;;;;;;;0.63;0.63;;;;;;;15.51;83.59;100442.59;5168772;28;20064;-84
2023/04/28 10:56:23;;;;;;;0.95;0.95;;;;;;;15.66;83.83;100441.78;5162232;28;20030;-85
2023/04/28 10:58:58;;;;;;;0.50;0.50;;;;;;;15.71;83.32;100445.06;5158138;28;20061;-83
2023/04/28 11:01:33;;;;;;;1.65;0.70;;;;;;;15.52;84.65;100444.28;5171477;28;20585;-83
2023/04/28 11:04:15;;;;;;;0.65;0.65;;;;;;;15.63;84.16;100441.09;5190015;28;20034;-83
2023/04/28 11:07:06;;;;;;;1.45;1.15;;;;;;;15.76;82.47;100444.81;5160957;28;20092;-84
2023/04/28 11:09:36;;;;;;;1.27;1.00;;;;;;;15.77;82.92;100443.00;5188979;28;20018;-83
2023/04/28 11:12:10;;;;;;;0.52;0.52;;;;;;;15.80;81.77;100441.03;5163056;28;20038;-83
2023/04/28 11:14:40;;;;;;;;;;;;;;;15.88;81.80;100438.03;5174344;28;20037;-83
2023/04/28 11:17:12;;;;;;;0.65;0.65;;;;;;;15.94;82.98;100434.22;5194455;28;19921;-85
2023/04/28 11:19:44;;;;;;;0.25;0.25;;;;;;;16.07;81.07;100431.75;5172502;28;20029;-85
2023/04/28 11:22:16;;;;;;;1.07;0.97;;;;;;;16.14;83.06;100419.88;5174999;28;20127;-84
2023/04/28 11:24:56;;;;;;;0.63;0.63;;;;;;;16.26;81.16;100413.91;5179906;28;20061;-85
2023/04/28 11:27:29;;;;;;;0.40;0.40;;;;;;;16.34;81.66;100413.47;5174779;28;20049;-86
2023/04/28 11:30:04;;;;;;;1.05;0.98;;;;;;;16.47;83.33;100416.28;5170667;28;20049;-86
2023/04/28 11:32:35;;;;;;;0.45;0.45;;;;;;;16.60;81.45;100411.16;5158184;28;20029;-85
2023/04/28 11:35:08;;;;;;;0.50;0.50;;;;;;;16.74;81.40;100420.94;5167609;28;20101;-84
2023/04/28 11:37:38;;;;;;;0.65;0.65;;;;;;;16.79;80.20;100419.72;5174492;28;20037;-86
2023/04/28 11:40:12;;;;;;;0.68;0.68;;;;;;;16.83;78.45;100423.91;5174491;28;20050;-86
2023/04/28 11:42:49;;;;;;;0.52;0.52;;;;;;;16.83;78.75;100420.41;5176275;28;20037;-85
2023/04/28 11:45:20;;;;;;;0.63;0.63;;;;;;;16.91;76.98;100423.44;5171274;28;20038;-85
2023/04/28 11:47:50;;;;;;;0.82;0.82;;;;;;;16.90;77.77;100421.75;5173201;28;20037;-86